Time;durP1;ratioP1;P1;durP2;ratioP2;P2;SDS_P1;SDS_P2;PMS_P1;PMS_P2;Temp;Humidity;BMP_temperature;BMP_pressure;BME280_temperature;BME280_humidity;BME280_pressure;Samples;Min_cycle;Max_cycle;Signal;HPM_P1;HPM_P2
2023/06/22 00:01:27;;;;;;;12.65;11.35;;;;;;;22.72;66.65;99583.97;5021258;28;20095;-74
2023/06/22 00:03:53;;;;;;;14.57;11.60;;;;;;;22.57;66.64;99574.72;5047420;28;20514;-74
2023/06/22 00:06:19;;;;;;;12.85;11.55;;;;;;;22.85;66.42;99597.75;5030143;28;20041;-73
2023/06/22 00:08:44;;;;;;;16.13;11.80;;;;;;;23.20;64.90;99589.38;5048007;28;20033;-73
2023/06/22 00:11:10;;;;;;;12.63;11.38;;;;;;;23.59;63.28;99599.69;5032154;28;20416;-74
2023/06/22 00:13:36;;;;;;;17.38;12.25;;;;;;;23.76;62.25;99592.19;5016647;28;20087;-73
2023/06/22 00:16:01;;;;;;;13.82;12.32;;;;;;;23.79;62.12;99604.81;5027815;28;20018;-74
2023/06/22 00:18:27;;;;;;;16.08;12.07;;;;;;;23.91;61.82;99598.56;5048864;28;20041;-73
2023/06/22 00:20:57;;;;;;;12.82;11.45;;;;;;;23.96;61.63;99603.81;5031037;28;20106;-74
2023/06/22 00:23:23;;;;;;;12.48;11.25;;;;;;;23.48;63.29;99614.06;5037795;28;20064;-74
2023/06/22 00:25:49;;;;;;;15.98;12.10;;;;;;;23.48;63.88;99619.78;5031419;28;20132;-73
2023/06/22 00:28:15;;;;;;;14.27;12.15;;;;;;;23.48;63.90;99621.81;5015714;28;20471;-74
2023/06/22 00:30:40;;;;;;;14.40;11.85;;;;;;;23.48;63.20;99616.91;5038643;28;20032;-74
2023/06/22 00:33:07;;;;;;;13.95;12.52;;;;;;;23.54;63.25;99625.84;5022068;28;20030;-74
2023/06/22 00:35:33;;;;;;;15.10;13.23;;;;;;;22.89;66.07;99620.53;5039863;28;20043;-73
2023/06/22 00:38:00;;;;;;;13.50;12.20;;;;;;;22.76;66.68;99623.88;5037410;28;20029;-73
2023/06/22 00:40:31;;;;;;;16.15;12.68;;;;;;;22.43;68.02;99626.00;5012919;28;20120;-73
2023/06/22 00:42:56;;;;;;;13.98;12.57;;;;;;;22.36;68.68;99628.91;5023597;28;20025;-73
2023/06/22 00:45:23;;;;;;;14.48;13.07;;;;;;;22.54;67.90;99623.97;5046455;28;20032;-73
2023/06/22 00:47:53;;;;;;;18.17;13.95;;;;;;;22.04;70.74;99635.50;5017525;28;20036;-73
2023/06/22 00:50:21;;;;;;;15.88;13.68;;;;;;;22.56;68.54;99632.94;5019127;28;20033;-74
2023/06/22 00:52:50;;;;;;;16.27;13.77;;;;;;;22.78;66.87;99638.53;5049922;28;20041;-73
2023/06/22 00:55:17;;;;;;;13.65;12.25;;;;;;;22.88;66.43;99639.72;5050234;28;20537;-74
2023/06/22 00:57:46;;;;;;;15.85;13.10;;;;;;;22.99;65.79;99637.59;5031575;28;20044;-74
2023/06/22 01:00:17;;;;;;;15.13;13.07;;;;;;;22.82;65.81;99632.81;5040543;28;20049;-73
2023/06/22 01:02:45;;;;;;;14.77;13.18;;;;;;;22.46;66.70;99628.06;5016243;28;20044;-74
2023/06/22 01:05:14;;;;;;;14.65;12.60;;;;;;;22.31;68.04;99624.44;5039330;28;20040;-73
2023/06/22 01:07:59;;;;;;;16.67;12.27;;;;;;;22.43;67.49;99628.88;5049413;28;20029;-74
2023/06/22 01:10:40;;;;;;;14.23;12.70;;;;;;;22.27;68.46;99635.84;5049655;28;20415;-73
2023/06/22 01:13:14;;;;;;;14.52;13.02;;;;;;;21.91;69.94;99635.94;5043681;28;20104;-74
2023/06/22 01:15:46;;;;;;;15.57;14.00;;;;;;;22.16;69.43;99635.88;5036272;28;20028;-74
2023/06/22 01:18:14;;;;;;;13.93;12.48;;;;;;;22.02;69.15;99633.88;5049352;28;20427;-73
2023/06/22 01:20:40;;;;;;;17.67;13.35;;;;;;;21.95;70.10;99633.06;5050972;28;20503;-74
2023/06/22 01:23:20;;;;;;;15.70;13.45;;;;;;;22.41;68.32;99637.84;5044093;28;20132;-73
2023/06/22 01:26:13;;;;;;;14.57;12.93;;;;;;;22.06;69.12;99633.03;5033946;28;20120;-74
2023/06/22 01:28:47;;;;;;;13.10;11.73;;;;;;;21.99;70.31;99633.88;5021805;28;20085;-74
2023/06/22 01:31:25;;;;;;;15.00;13.40;;;;;;;21.62;71.42;99638.78;5012277;28;20029;-74
2023/06/22 01:34:06;;;;;;;16.40;13.80;;;;;;;21.89;70.17;99635.53;5017168;28;20021;-74
2023/06/22 01:36:33;;;;;;;18.42;13.70;;;;;;;22.03;69.51;99623.31;5023329;28;20522;-74
2023/06/22 01:39:00;;;;;;;16.92;13.18;;;;;;;22.13;68.76;99622.44;5018020;28;20036;-74
2023/06/22 01:41:27;;;;;;;16.02;13.15;;;;;;;21.86;69.66;99620.06;5023368;28;20060;-74
2023/06/22 01:43:54;;;;;;;16.30;12.30;;;;;;;21.86;69.51;99614.38;5034895;28;20041;-74
2023/06/22 01:46:21;;;;;;;16.63;13.50;;;;;;;21.93;69.28;99613.53;5040697;28;20078;-74
2023/06/22 01:48:47;;;;;;;18.27;13.32;;;;;;;21.42;71.43;99619.25;5035851;28;20065;-74
2023/06/22 01:51:13;;;;;;;15.98;13.18;;;;;;;20.99;72.82;99617.19;5030746;28;20385;-74
2023/06/22 01:53:39;;;;;;;14.05;12.30;;;;;;;21.14;73.03;99618.03;5046623;28;20029;-74
2023/06/22 01:56:05;;;;;;;16.98;13.23;;;;;;;21.17;73.11;99617.22;5047392;28;20735;-74
2023/06/22 01:58:32;;;;;;;16.58;12.65;;;;;;;21.46;72.08;99631.44;5031283;28;20041;-74
2023/06/22 02:01:09;;;;;;;18.85;14.13;;;;;;;21.69;70.70;99626.59;5044996;28;20033;-73
2023/06/22 02:03:41;;;;;;;15.73;12.15;;;;;;;21.57;70.66;99619.25;5029787;28;20037;-74
2023/06/22 02:06:17;;;;;;;14.38;12.88;;;;;;;21.34;71.95;99628.19;5025650;28;20041;-74
2023/06/22 02:08:51;;;;;;;16.50;13.93;;;;;;;20.69;74.44;99614.63;5049611;28;20070;-74
2023/06/22 02:11:20;;;;;;;19.92;12.80;;;;;;;20.70;75.73;99621.94;5024799;28;20083;-74
2023/06/22 02:13:46;;;;;;;22.95;14.13;;;;;;;21.12;74.18;99617.63;5046563;28;20143;-74
2023/06/22 02:16:13;;;;;;;16.20;14.32;;;;;;;20.59;75.92;99624.75;5048548;28;20483;-74
2023/06/22 02:18:40;;;;;;;20.05;13.60;;;;;;;20.78;74.75;99612.22;5012690;28;20058;-74
2023/06/22 02:21:06;;;;;;;19.58;14.48;;;;;;;20.95;74.18;99624.91;5009183;28;20030;-74
2023/06/22 02:23:34;;;;;;;22.50;15.77;;;;;;;21.02;73.71;99627.75;5027579;28;20132;-74
2023/06/22 02:26:02;;;;;;;24.00;14.82;;;;;;;21.18;72.64;99633.06;5020527;28;20038;-74
2023/06/22 02:28:27;;;;;;;17.27;15.38;;;;;;;20.98;73.08;99634.63;5029766;28;20087;-73
2023/06/22 02:30:53;;;;;;;17.88;14.25;;;;;;;21.17;72.37;99634.28;5018865;28;20033;-73
2023/06/22 02:33:19;;;;;;;18.77;13.77;;;;;;;20.95;73.01;99630.59;5031363;28;20111;-73
2023/06/22 02:35:47;;;;;;;19.40;15.02;;;;;;;20.58;74.71;99629.63;5022909;28;20034;-73
2023/06/22 02:38:13;;;;;;;31.92;16.58;;;;;;;20.66;74.25;99635.34;5030463;28;20455;-74
2023/06/22 02:40:39;;;;;;;28.13;15.65;;;;;;;20.99;73.28;99628.56;5028070;28;20069;-74
2023/06/22 02:43:04;;;;;;;21.42;14.98;;;;;;;20.87;73.74;99638.25;5017183;28;20105;-73
2023/06/22 02:45:30;;;;;;;20.95;15.48;;;;;;;20.65;73.78;99643.03;5023238;28;20026;-75
2023/06/22 02:47:56;;;;;;;59.22;16.15;;;;;;;20.43;74.74;99650.66;5014932;28;20021;-82
2023/06/22 02:50:21;;;;;;;26.45;16.35;;;;;;;20.06;76.70;99653.28;5030685;28;20037;-77
2023/06/22 02:52:47;;;;;;;24.23;17.58;;;;;;;19.78;78.18;99653.88;5029589;28;20150;-77
2023/06/22 02:55:12;;;;;;;29.52;15.93;;;;;;;19.84;78.46;99655.13;5020116;28;20125;-83
2023/06/22 02:57:41;;;;;;;19.80;16.08;;;;;;;20.00;77.80;99656.91;5013901;28;20480;-79
2023/06/22 03:00:16;;;;;;;28.60;18.23;;;;;;;19.89;78.15;99663.28;5012176;28;20425;-78
2023/06/22 03:02:41;;;;;;;24.10;18.23;;;;;;;19.91;78.60;99654.38;5021308;28;20057;-83
2023/06/22 03:05:13;;;;;;;22.83;17.55;;;;;;;19.98;78.61;99657.28;5012500;28;20061;-83
2023/06/22 03:07:40;;;;;;;21.77;16.08;;;;;;;19.91;78.61;99643.81;5018176;28;20128;-84
2023/06/22 03:10:07;;;;;;;25.00;17.20;;;;;;;19.80;79.36;99650.66;5013464;28;20022;-83
2023/06/22 03:12:32;;;;;;;19.95;16.60;;;;;;;19.77;78.95;99647.38;5012789;28;20038;-83
2023/06/22 03:14:58;;;;;;;29.05;19.15;;;;;;;19.45;80.80;99650.78;5012120;28;20030;-83
2023/06/22 03:17:23;;;;;;;31.38;18.92;;;;;;;19.25;81.86;99658.69;5028709;28;20026;-83
2023/06/22 03:19:49;;;;;;;29.10;19.13;;;;;;;19.26;81.58;99659.50;5051535;28;20049;-83
2023/06/22 03:22:15;;;;;;;28.83;20.27;;;;;;;19.09;83.30;99653.25;5034385;28;20024;-83
2023/06/22 03:24:40;;;;;;;33.15;19.83;;;;;;;18.88;84.82;99657.47;5019474;28;20032;-83
2023/06/22 03:27:06;;;;;;;23.30;18.88;;;;;;;19.13;83.93;99661.81;5030243;28;20033;-83
2023/06/22 03:29:32;;;;;;;25.05;18.23;;;;;;;19.17;83.59;99666.28;5039344;28;20067;-84
2023/06/22 03:31:57;;;;;;;19.88;16.58;;;;;;;19.12;83.85;99663.81;5038284;28;20021;-83
2023/06/22 03:34:23;;;;;;;23.27;17.00;;;;;;;19.21;83.43;99664.31;5028210;28;20073;-83
2023/06/22 03:36:48;;;;;;;18.50;15.68;;;;;;;19.03;84.71;99668.97;5046123;28;20116;-83
2023/06/22 03:39:14;;;;;;;20.52;17.08;;;;;;;18.96;85.00;99671.72;5034201;28;20033;-83
2023/06/22 03:41:39;;;;;;;23.42;15.65;;;;;;;18.89;85.35;99678.91;5050211;28;20044;-83
2023/06/22 03:44:05;;;;;;;17.38;15.57;;;;;;;18.97;85.17;99670.50;5031592;28;20033;-83
2023/06/22 03:46:30;;;;;;;17.08;13.25;;;;;;;19.14;84.45;99674.78;5036813;28;20040;-83
2023/06/22 03:48:55;;;;;;;16.65;13.40;;;;;;;19.44;83.03;99676.69;5025559;28;20049;-83
2023/06/22 03:51:21;;;;;;;19.25;12.70;;;;;;;19.69;81.96;99668.41;5022836;28;20384;-83
2023/06/22 03:53:48;;;;;;;20.38;12.95;;;;;;;19.78;80.82;99673.72;5033661;28;20056;-84
2023/06/22 03:56:20;;;;;;;17.27;12.25;;;;;;;19.83;80.78;99681.88;5047786;28;20108;-83
2023/06/22 03:58:45;;;;;;;13.95;11.95;;;;;;;19.74;81.51;99685.06;5029231;28;20029;-84
2023/06/22 04:01:11;;;;;;;17.95;13.40;;;;;;;19.88;80.82;99672.19;5030068;28;20032;-83
2023/06/22 04:03:37;;;;;;;17.38;12.05;;;;;;;19.92;80.81;99678.72;5014808;28;20029;-84
2023/06/22 04:06:03;;;;;;;17.48;13.23;;;;;;;19.96;80.34;99671.06;5023822;28;20035;-84
2023/06/22 04:08:28;;;;;;;20.42;14.32;;;;;;;19.96;80.79;99673.91;5031573;28;20112;-83
2023/06/22 04:10:54;;;;;;;14.43;12.93;;;;;;;20.06;80.43;99683.69;5029089;28;20035;-84
2023/06/22 04:13:19;;;;;;;18.05;13.20;;;;;;;20.13;81.12;99680.09;5039260;28;20025;-84
2023/06/22 04:15:45;;;;;;;20.42;14.15;;;;;;;20.13;81.44;99682.94;5033174;28;20055;-84
2023/06/22 04:18:10;;;;;;;23.80;14.65;;;;;;;20.10;81.95;99678.88;5022808;28;20583;-83
2023/06/22 04:20:36;;;;;;;17.05;13.88;;;;;;;20.05;82.01;99687.75;5034159;28;20025;-84
2023/06/22 04:23:01;;;;;;;16.10;14.38;;;;;;;20.03;82.45;99675.97;5033329;28;20412;-83
2023/06/22 04:25:27;;;;;;;21.02;14.80;;;;;;;20.11;82.71;99686.19;5031819;28;20417;-83
2023/06/22 04:27:52;;;;;;;17.85;15.25;;;;;;;20.26;82.37;99697.63;5017212;28;20029;-83
2023/06/22 04:30:18;;;;;;;19.92;14.20;;;;;;;20.40;81.06;99688.38;5016757;28;20511;-83
2023/06/22 04:32:44;;;;;;;20.60;14.02;;;;;;;20.57;80.34;99696.16;5016457;28;20622;-83
2023/06/22 04:35:10;;;;;;;18.15;14.18;;;;;;;20.82;78.39;99695.50;5014331;28;20025;-83
2023/06/22 04:37:35;;;;;;;18.40;14.20;;;;;;;20.97;76.64;99692.72;5013903;28;20029;-83
2023/06/22 04:40:03;;;;;;;20.50;13.15;;;;;;;21.21;75.65;99696.03;5032608;28;20082;-83
2023/06/22 04:42:28;;;;;;;17.27;13.40;;;;;;;21.43;73.93;99689.16;5025790;28;20029;-83
2023/06/22 04:44:54;;;;;;;16.30;13.60;;;;;;;21.67;73.39;99698.16;5019848;28;20063;-83
2023/06/22 04:47:20;;;;;;;16.33;13.38;;;;;;;21.83;72.37;99694.09;5024826;28;20032;-82
2023/06/22 04:49:46;;;;;;;17.42;14.48;;;;;;;21.92;71.81;99680.25;5032309;28;20017;-83
2023/06/22 04:52:13;;;;;;;17.75;12.57;;;;;;;22.13;70.64;99682.25;5029742;28;20069;-83
2023/06/22 04:54:47;;;;;;;22.88;12.63;;;;;;;22.43;69.55;99680.16;5034330;28;20680;-84
2023/06/22 04:57:13;;;;;;;15.70;12.68;;;;;;;22.49;68.77;99683.44;5018898;28;20029;-83
2023/06/22 04:59:42;;;;;;;16.80;12.93;;;;;;;22.48;68.69;99684.63;5018493;28;20028;-83
2023/06/22 05:02:08;;;;;;;28.02;13.10;;;;;;;22.61;68.62;99679.34;5034740;28;20598;-83
2023/06/22 05:04:38;;;;;;;18.75;13.02;;;;;;;22.79;66.87;99677.19;5020996;28;20064;-79
2023/06/22 05:07:03;;;;;;;;;;;;;;;22.91;66.59;99681.66;5035734;28;20051;-81
2023/06/22 05:09:30;;;;;;;18.17;12.98;;;;;;;23.13;64.89;99676.63;5016893;28;20449;-82
2023/06/22 05:11:57;;;;;;;17.15;11.98;;;;;;;23.27;65.03;99672.09;5032853;28;20528;-85
2023/06/22 05:14:22;;;;;;;13.07;11.70;;;;;;;23.25;63.79;99666.78;5020247;28;20164;-85
2023/06/22 05:16:49;;;;;;;38.30;12.20;;;;;;;23.44;64.20;99670.34;5017545;28;20116;-84
2023/06/22 05:19:15;;;;;;;32.28;13.77;;;;;;;23.53;63.03;99676.41;5028024;28;20068;-85
2023/06/22 05:21:40;;;;;;;18.80;11.57;;;;;;;23.75;62.94;99666.84;5010120;28;20051;-77
2023/06/22 05:24:06;;;;;;;21.33;12.63;;;;;;;23.88;62.06;99664.28;5039770;28;20032;-83
2023/06/22 05:26:33;;;;;;;37.13;13.63;;;;;;;23.81;62.04;99674.53;5017788;28;20029;-78
2023/06/22 05:29:00;;;;;;;34.50;13.57;;;;;;;23.87;61.81;99668.38;5046110;28;20059;-79
2023/06/22 05:31:26;;;;;;;14.55;11.63;;;;;;;23.95;61.28;99670.75;5040807;28;20017;-75
2023/06/22 05:33:53;;;;;;;29.65;13.75;;;;;;;24.14;60.75;99671.41;5015301;28;20031;-80
2023/06/22 05:36:19;;;;;;;17.40;11.50;;;;;;;24.15;60.24;99670.19;5029067;28;20027;-78
2023/06/22 05:38:45;;;;;;;18.20;12.18;;;;;;;24.25;59.85;99660.69;5017307;28;20472;-77
2023/06/22 05:41:10;;;;;;;16.77;12.00;;;;;;;24.31;59.16;99668.78;5044850;28;20025;-76
2023/06/22 05:43:36;;;;;;;20.33;12.10;;;;;;;24.41;59.08;99667.84;5038773;28;20132;-80
2023/06/22 05:46:02;;;;;;;15.57;12.32;;;;;;;24.53;58.50;99678.75;5048177;28;20025;-82
2023/06/22 05:48:27;;;;;;;22.73;11.57;;;;;;;24.65;58.70;99671.66;5040608;28;20025;-80
2023/06/22 05:50:54;;;;;;;17.02;11.55;;;;;;;24.67;57.78;99665.50;5038908;28;20035;-83
2023/06/22 05:53:19;;;;;;;19.75;11.27;;;;;;;25.02;57.46;99672.03;5029438;28;20021;-82
2023/06/22 05:55:45;;;;;;;14.63;11.27;;;;;;;25.21;56.71;99669.72;5029560;28;20025;-82
2023/06/22 05:58:11;;;;;;;16.75;11.60;;;;;;;25.34;56.19;99676.50;5034041;28;20061;-74
2023/06/22 06:00:36;;;;;;;15.40;11.13;;;;;;;25.70;55.09;99678.00;5036693;28;20078;-73
2023/06/22 06:03:03;;;;;;;16.45;11.35;;;;;;;25.59;54.29;99678.19;5040511;28;20492;-72
2023/06/22 06:05:33;;;;;;;17.08;10.77;;;;;;;25.89;53.33;99678.50;5039452;28;20556;-74
2023/06/22 06:07:59;;;;;;;12.38;10.77;;;;;;;26.01;53.62;99675.00;5045524;28;20022;-74
2023/06/22 06:10:25;;;;;;;11.60;10.07;;;;;;;26.01;52.22;99675.00;5037190;28;20527;-76
2023/06/22 06:12:51;;;;;;;15.60;11.40;;;;;;;25.98;54.09;99683.66;5029626;28;20025;-79
2023/06/22 06:15:16;;;;;;;17.90;11.73;;;;;;;26.17;52.79;99685.75;5034912;28;20028;-80
2023/06/22 06:17:48;;;;;;;19.27;10.75;;;;;;;26.24;51.69;99684.03;5023465;28;20028;-82
2023/06/22 06:20:15;;;;;;;15.93;9.57;;;;;;;26.34;50.77;99678.09;5038283;28;20028;-86
2023/06/22 06:22:42;;;;;;;16.35;10.13;;;;;;;26.59;49.38;99676.00;5035251;28;20019;-87
2023/06/22 06:25:08;;;;;;;14.50;9.27;;;;;;;26.26;49.72;99670.91;5020532;28;20028;-77
2023/06/22 06:27:33;;;;;;;10.80;9.65;;;;;;;26.29;49.83;99681.47;5035149;28;20025;-76
2023/06/22 06:29:59;;;;;;;23.77;9.95;;;;;;;26.46;50.80;99659.44;5036956;28;20479;-78
2023/06/22 06:32:24;;;;;;;16.85;11.20;;;;;;;26.58;49.90;99657.97;5037903;28;20021;-77
2023/06/22 06:34:50;;;;;;;14.13;9.23;;;;;;;26.92;49.62;99661.81;5033700;28;20030;-76
2023/06/22 06:37:17;;;;;;;13.68;9.15;;;;;;;26.85;48.38;99656.19;5033985;28;20068;-77
2023/06/22 06:39:45;;;;;;;20.83;10.00;;;;;;;27.14;47.56;99664.19;5038331;28;20025;-81
2023/06/22 06:42:11;;;;;;;15.48;10.13;;;;;;;27.19;48.10;99652.19;5049846;28;20024;-76
2023/06/22 06:44:37;;;;;;;11.82;9.15;;;;;;;27.27;47.50;99658.56;5045487;28;20108;-80
2023/06/22 06:47:04;;;;;;;32.97;11.95;;;;;;;27.47;47.40;99650.69;5016780;28;20038;-77
2023/06/22 06:49:50;;;;;;;10.10;9.00;;;;;;;27.50;46.82;99666.19;5021527;28;20013;-84
2023/06/22 06:52:16;;;;;;;10.68;9.60;;;;;;;27.52;47.27;99654.28;5040741;28;20507;-80
2023/06/22 06:54:41;;;;;;;10.00;8.90;;;;;;;27.56;46.44;99660.75;5053224;28;20075;-80
2023/06/22 06:57:07;;;;;;;11.65;9.18;;;;;;;27.35;47.70;99662.06;5049842;28;20025;-81
2023/06/22 06:59:32;;;;;;;17.38;9.95;;;;;;;27.56;46.34;99658.72;5021939;28;20407;-81
2023/06/22 07:01:58;;;;;;;12.25;8.77;;;;;;;27.59;45.84;99657.03;5019451;28;20020;-81
2023/06/22 07:04:23;;;;;;;10.73;8.80;;;;;;;27.54;46.04;99666.16;5025584;28;20021;-81
2023/06/22 07:06:49;;;;;;;11.70;8.88;;;;;;;27.37;45.62;99674.72;5026535;28;20032;-79
2023/06/22 07:09:14;;;;;;;9.75;8.00;;;;;;;27.59;46.07;99665.63;5028101;28;20033;-80
2023/06/22 07:11:40;;;;;;;9.63;8.38;;;;;;;27.97;46.34;99667.13;5027743;28;20025;-79
2023/06/22 07:14:05;;;;;;;11.52;9.60;;;;;;;28.06;45.06;99658.69;5032981;28;20033;-80
2023/06/22 07:16:31;;;;;;;19.73;9.48;;;;;;;28.07;44.68;99663.16;5012476;28;20408;-79
2023/06/22 07:18:58;;;;;;;13.55;9.10;;;;;;;27.99;45.49;99658.84;5025352;28;20072;-84
2023/06/22 07:21:23;;;;;;;11.63;8.63;;;;;;;28.48;44.23;99668.66;4999641;28;20048;-82
2023/06/22 07:23:49;;;;;;;11.13;8.82;;;;;;;28.53;42.63;99671.00;5035973;28;20049;-82
2023/06/22 07:26:17;;;;;;;12.95;8.32;;;;;;;28.90;42.31;99653.50;5020025;28;20033;-81
2023/06/22 07:28:43;;;;;;;12.38;8.82;;;;;;;28.69;42.20;99664.38;5017357;28;20080;-78
2023/06/22 07:31:08;;;;;;;10.65;8.85;;;;;;;28.72;41.82;99669.19;5018042;28;20037;-75
2023/06/22 07:33:34;;;;;;;73.47;12.52;;;;;;;29.11;42.26;99663.56;5014642;28;20508;-75
2023/06/22 07:35:59;;;;;;;13.18;8.95;;;;;;;29.49;40.82;99659.91;5018793;28;20048;-75
2023/06/22 07:38:25;;;;;;;12.70;8.27;;;;;;;28.99;40.92;99668.00;5050240;28;20048;-76
2023/06/22 07:40:53;;;;;;;13.32;9.43;;;;;;;29.04;41.10;99663.75;5034864;28;20052;-80
2023/06/22 07:43:19;;;;;;;9.20;8.20;;;;;;;29.15;41.09;99658.47;5042017;28;20104;-81
2023/06/22 07:45:54;;;;;;;12.15;8.73;;;;;;;29.11;41.25;99658.59;5017022;28;20049;-81
2023/06/22 07:48:22;;;;;;;12.40;8.25;;;;;;;29.21;40.67;99656.66;5028855;28;20064;-83
2023/06/22 07:50:49;;;;;;;11.32;8.30;;;;;;;29.59;40.77;99669.44;5022561;28;20036;-78
2023/06/22 07:53:14;;;;;;;9.95;8.57;;;;;;;29.65;39.38;99661.03;5021838;28;20026;-78
2023/06/22 07:55:40;;;;;;;9.77;7.68;;;;;;;29.64;39.24;99670.94;5016225;28;20048;-81
2023/06/22 07:58:06;;;;;;;10.10;7.57;;;;;;;29.75;39.21;99664.84;5036119;28;20025;-77
2023/06/22 08:00:33;;;;;;;12.98;7.60;;;;;;;30.00;39.04;99661.06;5019796;28;20031;-79
2023/06/22 08:02:58;;;;;;;9.65;7.43;;;;;;;30.03;38.34;99647.81;5013904;28;20102;-79
2023/06/22 08:05:24;;;;;;;9.30;8.18;;;;;;;29.72;38.39;99654.22;5032155;28;20555;-75
2023/06/22 08:07:51;;;;;;;7.05;6.45;;;;;;;30.07;37.67;99652.22;5036182;28;20472;-78
2023/06/22 08:10:18;;;;;;;12.77;7.88;;;;;;;29.81;37.73;99652.25;5025156;28;20068;-81
2023/06/22 08:12:44;;;;;;;8.57;7.32;;;;;;;29.90;37.23;99642.06;5044411;28;20056;-81
2023/06/22 08:15:11;;;;;;;9.93;7.70;;;;;;;30.06;37.52;99639.06;5046014;28;20060;-87
2023/06/22 08:17:37;;;;;;;11.18;7.40;;;;;;;30.28;37.53;99643.25;5028430;28;20037;-86
2023/06/22 08:20:09;;;;;;;8.05;6.43;;;;;;;30.69;36.49;99638.44;5032090;28;20068;-75
2023/06/22 08:22:36;;;;;;;9.20;6.93;;;;;;;31.00;35.18;99642.63;5016454;28;20029;-78
2023/06/22 08:25:03;;;;;;;11.73;6.95;;;;;;;31.29;34.35;99627.06;5014335;28;20037;-76
2023/06/22 08:27:33;;;;;;;8.57;6.78;;;;;;;31.76;35.48;99636.66;5049128;28;20029;-84
2023/06/22 08:30:00;;;;;;;7.13;6.43;;;;;;;31.43;33.25;99631.44;5049323;28;20035;-74
2023/06/22 08:32:27;;;;;;;11.88;6.93;;;;;;;31.57;33.87;99621.38;5043414;28;20100;-76
2023/06/22 08:34:54;;;;;;;7.28;5.63;;;;;;;31.01;33.41;99624.00;5048898;28;20058;-80
2023/06/22 08:37:20;;;;;;;6.68;5.97;;;;;;;30.77;32.79;99621.66;5014866;28;20036;-83
2023/06/22 08:39:47;;;;;;;7.50;6.55;;;;;;;30.91;33.68;99614.50;5037179;28;20037;-76
2023/06/22 08:42:12;;;;;;;23.55;7.22;;;;;;;31.68;32.85;99613.06;5019602;28;20048;-78
2023/06/22 08:44:38;;;;;;;8.50;5.72;;;;;;;32.06;31.75;99619.72;5030045;28;20435;-78
2023/06/22 08:47:04;;;;;;;10.15;6.03;;;;;;;32.31;29.96;99617.78;5029100;28;20045;-82
2023/06/22 08:49:29;;;;;;;7.60;6.90;;;;;;;32.55;29.93;99629.50;5040399;28;20041;-80
2023/06/22 08:51:56;;;;;;;7.28;6.57;;;;;;;32.02;31.00;99628.56;5018611;28;20024;-83
2023/06/22 08:54:22;;;;;;;7.82;6.60;;;;;;;32.10;30.18;99622.44;5018556;28;20476;-74
2023/06/22 08:56:47;;;;;;;7.72;6.07;;;;;;;31.61;30.21;99619.13;5033336;28;20031;-78
2023/06/22 08:59:13;;;;;;;7.80;6.80;;;;;;;32.21;31.86;99626.47;5017134;28;20099;-74
2023/06/22 09:01:38;;;;;;;11.98;7.15;;;;;;;32.37;29.89;99624.56;5016513;28;20580;-78
2023/06/22 09:04:05;;;;;;;7.90;5.78;;;;;;;32.75;30.52;99617.41;5011765;28;20136;-79
2023/06/22 09:06:31;;;;;;;9.13;6.05;;;;;;;33.22;27.36;99623.06;5022745;28;20499;-78
2023/06/22 09:08:59;;;;;;;12.00;6.20;;;;;;;33.47;28.03;99613.16;5010434;28;20033;-82
2023/06/22 09:11:25;;;;;;;7.05;6.35;;;;;;;33.07;29.25;99620.09;5013141;28;20419;-76
2023/06/22 09:13:51;;;;;;;7.22;6.10;;;;;;;32.94;28.86;99617.41;5038337;28;20021;-78
2023/06/22 09:16:17;;;;;;;11.70;5.65;;;;;;;32.85;31.14;99617.38;5033641;28;20025;-78
2023/06/22 09:18:47;;;;;;;7.95;6.70;;;;;;;33.27;28.20;99618.72;5018016;28;20516;-75
2023/06/22 09:21:12;;;;;;;8.05;5.93;;;;;;;33.85;28.40;99615.81;5035568;28;20047;-75
2023/06/22 09:23:38;;;;;;;8.75;6.47;;;;;;;33.88;27.95;99611.94;5024618;28;20037;-76
2023/06/22 09:26:04;;;;;;;7.38;5.97;;;;;;;34.28;28.38;99612.78;5019140;28;20579;-76
2023/06/22 09:28:29;;;;;;;6.43;5.35;;;;;;;34.06;28.32;99619.72;5043757;28;20067;-77
2023/06/22 09:30:58;;;;;;;8.05;6.25;;;;;;;33.43;29.31;99612.53;5034413;28;20083;-77
2023/06/22 09:33:24;;;;;;;9.90;6.13;;;;;;;33.17;29.43;99610.06;5040133;28;20055;-77
2023/06/22 09:35:50;;;;;;;7.30;6.57;;;;;;;32.72;30.72;99606.03;5036468;28;20126;-77
2023/06/22 09:38:16;;;;;;;8.30;6.80;;;;;;;32.68;30.18;99602.47;5037144;28;20573;-77
2023/06/22 09:40:42;;;;;;;14.40;6.65;;;;;;;33.03;30.39;99599.19;5043040;28;20044;-77
2023/06/22 09:43:07;;;;;;;6.45;5.85;;;;;;;32.86;29.42;99590.84;5042907;28;20025;-78
2023/06/22 09:45:33;;;;;;;6.95;6.35;;;;;;;32.75;29.99;99590.56;5031328;28;20036;-78
2023/06/22 09:47:58;;;;;;;8.30;6.00;;;;;;;32.77;29.18;99605.34;5030862;28;20459;-77
2023/06/22 09:50:23;;;;;;;6.95;6.25;;;;;;;33.24;30.37;99596.53;5025848;28;20041;-78
2023/06/22 09:52:54;;;;;;;7.82;7.03;;;;;;;33.56;29.09;99597.03;5046219;28;20029;-77
2023/06/22 09:55:20;;;;;;;7.22;6.22;;;;;;;33.89;29.22;99596.94;5043139;28;20032;-78
2023/06/22 09:57:45;;;;;;;7.45;6.60;;;;;;;34.30;29.75;99596.47;5044547;28;20393;-78
2023/06/22 10:00:13;;;;;;;7.30;6.60;;;;;;;34.20;27.86;99594.94;5030428;28;20119;-78
2023/06/22 10:02:39;;;;;;;6.82;6.22;;;;;;;33.81;28.58;99597.81;5049053;28;20021;-77
2023/06/22 10:05:05;;;;;;;7.78;7.03;;;;;;;34.20;28.74;99600.75;5049345;28;20025;-77
2023/06/22 10:07:30;;;;;;;7.15;6.55;;;;;;;34.33;28.46;99605.47;5041680;28;20032;-77
2023/06/22 10:09:56;;;;;;;8.55;6.63;;;;;;;34.45;28.84;99601.50;5022186;28;20171;-77
2023/06/22 10:12:21;;;;;;;7.63;6.68;;;;;;;34.58;26.86;99592.53;5045635;28;20379;-77
2023/06/22 10:14:47;;;;;;;13.63;6.45;;;;;;;34.18;27.51;99594.66;5035870;28;20445;-76
2023/06/22 10:17:12;;;;;;;8.27;6.30;;;;;;;34.29;28.39;99591.97;5036693;28;20389;-77
2023/06/22 10:19:38;;;;;;;9.82;6.38;;;;;;;34.73;27.88;99589.59;5042662;28;20110;-77
2023/06/22 10:22:05;;;;;;;9.35;6.30;;;;;;;35.09;26.26;99583.91;5044652;28;20110;-76
2023/06/22 10:24:30;;;;;;;10.48;6.97;;;;;;;35.37;26.39;99575.59;5030760;28;20376;-78
2023/06/22 10:26:56;;;;;;;7.25;5.97;;;;;;;35.47;26.53;99587.06;5044563;28;20036;-76
2023/06/22 10:29:21;;;;;;;8.35;6.82;;;;;;;35.39;27.16;99578.00;5042376;28;20029;-76
2023/06/22 10:31:47;;;;;;;7.10;6.47;;;;;;;35.39;26.78;99578.81;5039942;28;20505;-77
2023/06/22 10:34:12;;;;;;;7.95;6.35;;;;;;;35.44;26.74;99564.84;5026306;28;20046;-77
2023/06/22 10:36:38;;;;;;;7.60;6.75;;;;;;;35.35;26.69;99545.44;5045853;28;20077;-77
2023/06/22 10:39:04;;;;;;;11.75;6.30;;;;;;;35.19;26.95;99565.03;5028354;28;20093;-76
2023/06/22 10:41:30;;;;;;;11.35;6.47;;;;;;;35.08;27.41;99559.06;5027323;28;20037;-76
2023/06/22 10:43:56;;;;;;;7.43;6.35;;;;;;;34.84;27.17;99568.69;5023484;28;20116;-76
2023/06/22 10:46:24;;;;;;;8.95;6.68;;;;;;;34.56;27.27;99555.28;5047419;28;20025;-76
2023/06/22 10:48:50;;;;;;;9.20;7.05;;;;;;;34.17;27.81;99552.44;5028331;28;20020;-76
2023/06/22 10:51:15;;;;;;;7.45;6.10;;;;;;;34.38;27.73;99544.63;5049744;28;20502;-77
2023/06/22 10:53:41;;;;;;;16.05;6.40;;;;;;;34.54;28.52;99540.47;5041299;28;20040;-76
2023/06/22 10:56:06;;;;;;;8.68;6.03;;;;;;;34.48;27.94;99538.75;5031811;28;20093;-77
2023/06/22 10:58:32;;;;;;;11.35;7.20;;;;;;;34.33;28.59;99524.22;5033697;28;20028;-76
2023/06/22 11:00:58;;;;;;;7.93;6.82;;;;;;;34.01;28.84;99524.69;5029110;28;20427;-77
2023/06/22 11:03:24;;;;;;;9.88;7.65;;;;;;;33.39;29.45;99533.63;5028886;28;20032;-77
2023/06/22 11:05:49;;;;;;;7.05;6.45;;;;;;;33.75;28.80;99534.69;5051713;28;20086;-77
2023/06/22 11:08:15;;;;;;;6.90;6.18;;;;;;;34.53;27.75;99538.06;5044140;28;20041;-77
2023/06/22 11:10:40;;;;;;;7.25;6.57;;;;;;;34.62;27.50;99545.84;5030101;28;20021;-77
2023/06/22 11:13:09;;;;;;;6.88;6.20;;;;;;;34.82;26.88;99542.25;5027998;28;20427;-77
2023/06/22 11:15:35;;;;;;;7.40;6.47;;;;;;;35.03;27.23;99540.22;5024386;28;20547;-77
2023/06/22 11:18:01;;;;;;;6.93;6.05;;;;;;;35.41;27.30;99540.47;5020829;28;20038;-77
2023/06/22 11:20:26;;;;;;;8.00;5.55;;;;;;;35.30;26.21;99541.16;5046507;28;20415;-77